createdAt,value
2019-02-15T00:08:17.248Z,67.2
2019-02-15T00:23:28.860Z,67.4
2019-02-15T00:38:40.410Z,67.4
2019-02-15T00:53:51.917Z,68.7
2019-02-15T01:08:59.203Z,70.3
2019-02-15T01:24:14.696Z,71.2
2019-02-15T01:39:25.949Z,71.3
2019-02-15T01:54:37.193Z,72
2019-02-15T02:09:38.924Z,72.7
2019-02-15T02:24:59.459Z,73.2
2019-02-15T02:40:11.819Z,73.2
2019-02-15T02:55:21.668Z,73.8
2019-02-15T03:10:33.043Z,73.2
2019-02-15T03:25:44.139Z,72
2019-02-15T03:40:55.283Z,71.7
2019-02-15T03:56:06.249Z,72.2
2019-02-15T04:11:17.285Z,72.4
2019-02-15T04:26:23.911Z,73.7
2019-02-15T04:41:39.254Z,73.8
2019-02-15T04:56:50.308Z,74
2019-02-15T05:12:01.366Z,72.7
2019-02-15T05:27:03.067Z,73.7
2019-02-15T05:42:23.216Z,73.5
2019-02-15T05:57:34.280Z,73.9
2019-02-15T06:12:44.992Z,74
2019-02-15T06:27:55.868Z,74.5
2019-02-15T06:43:06.804Z,75.3
2019-02-15T06:58:17.580Z,75.1
2019-02-15T07:13:28.947Z,74.5
2019-02-15T07:28:39.505Z,66.8
2019-02-15T07:43:50.648Z,55.6
2019-02-15T07:59:01.875Z,50.9
2019-02-15T08:14:17.619Z,50.4
2019-02-15T08:29:24.923Z,50.6
2019-02-15T08:44:36.729Z,53
2019-02-15T08:59:48.742Z,53.4
2019-02-15T09:15:01.133Z,51.5
2019-02-15T09:30:04.430Z,50.2
2019-02-15T09:45:26.466Z,49.7
2019-02-15T10:00:39.927Z,48.1
2019-02-15T10:15:53.178Z,46.6
2019-02-15T10:31:07.407Z,43.9
2019-02-15T10:46:19.846Z,40
2019-02-15T11:01:37.123Z,34
2019-02-15T11:16:53.364Z,30.7
2019-02-15T11:32:10.373Z,28.8
2019-02-15T11:47:27.811Z,27.8
2019-02-15T12:02:40.304Z,25.9
2019-02-15T12:18:03.329Z,23.6
2019-02-15T12:33:21.946Z,22.2
2019-02-15T12:48:40.430Z,21.2
2019-02-15T13:03:59.800Z,20.4
2019-02-15T13:19:06.929Z,19.2
2019-02-15T13:34:37.019Z,17.2
2019-02-15T13:49:59.306Z,16.3
2019-02-15T14:05:19.287Z,16.8
2019-02-15T14:20:38.687Z,14.8
2019-02-15T14:35:58.507Z,14.8
2019-02-15T14:51:05.858Z,15.6
2019-02-15T15:06:36.503Z,15.5
2019-02-15T15:21:58.513Z,12.3
2019-02-15T15:37:20.833Z,12.7
2019-02-15T15:52:43.078Z,13.7
2019-02-15T16:08:02.904Z,16.9
2019-02-15T16:23:04.935Z,18.9
2019-02-15T16:38:33.792Z,20.8
2019-02-15T16:53:53.464Z,22.8
2019-02-15T17:09:09.141Z,24.4
2019-02-15T17:24:24.227Z,26.9
2019-02-15T17:39:39.067Z,28.9
2019-02-15T17:54:53.496Z,30.9
2019-02-15T18:10:08.061Z,33
2019-02-15T18:25:22.286Z,38
2019-02-15T18:40:36.476Z,36.9
2019-02-15T18:55:41.746Z,35.9
2019-02-15T19:11:05.104Z,39.2
2019-02-15T19:26:18.920Z,41.9
2019-02-15T19:41:33.140Z,43.1
2019-02-15T19:56:45.544Z,44.9
2019-02-15T20:11:55.306Z,46.1
2019-02-15T20:27:11.674Z,47.3
2019-02-15T20:42:24.682Z,46.4
2019-02-15T20:57:37.617Z,47.5
2019-02-15T21:12:40.334Z,48.9
2019-02-15T21:28:02.755Z,49.9
2019-02-15T21:43:15.235Z,50
2019-02-15T21:58:27.798Z,51.3
2019-02-15T22:13:39.741Z,52.3
2019-02-15T22:28:50.032Z,52.2
2019-02-15T22:44:04.175Z,54.5
2019-02-15T22:59:16.062Z,56
2019-02-15T23:14:28.072Z,54.9
2019-02-15T23:29:33.060Z,55.1
2019-02-15T23:44:51.977Z,55.2
